Terminal Aerodrome Forecast
Issued by NWS Twin Cities, MN

Home | Current Version | Previous Version | Text Only | Print | Product List | Glossary On
Versions: 1 2 3 4 5 6 7 8 9 10 11 12 13 14 15 16 17
426
FTUS43 KMPX 041738
TAFSTC
TAF
KSTC 041738Z 0418/0518 18009KT 5SM BR OVC006
     FM042000 20009KT P6SM OVC012
     FM042200 22007KT P6SM OVC020
     FM050000 22007KT P6SM FEW030 SCT200
     FM050900 14004KT P6SM BKN150
     FM051500 15011G18KT P6SM OVC100=

USA.gov is the U.S. government's official web portal to all federal, state and local government web resources and services.